createdAt,value
2018-09-24T00:01:27.982Z,7.94
2018-09-24T00:03:56.999Z,7.97
2018-09-24T00:06:25.965Z,7.89
2018-09-24T00:08:55.112Z,7.99
2018-09-24T00:11:25.248Z,7.98
2018-09-24T00:13:54.203Z,7.93
2018-09-24T00:16:23.103Z,7.88
2018-09-24T00:18:52.193Z,7.96
2018-09-24T00:21:22.273Z,7.82
2018-09-24T00:23:51.109Z,7.83
2018-09-24T00:26:20.089Z,7.75
2018-09-24T00:28:49.137Z,7.73
2018-09-24T00:31:17.982Z,7.63
2018-09-24T00:33:47.118Z,7.66
2018-09-24T00:36:16.063Z,7.59
2018-09-24T00:38:45.057Z,7.52
2018-09-24T00:41:16.153Z,7.45
2018-09-24T00:43:47.380Z,7.48
2018-09-24T00:46:16.364Z,7.46
2018-09-24T00:48:45.433Z,7.41
2018-09-24T00:51:14.509Z,7.44
2018-09-24T00:53:43.574Z,7.36
2018-09-24T00:56:12.681Z,7.37
2018-09-24T00:58:41.758Z,7.46
2018-09-24T01:01:10.745Z,7.42
2018-09-24T01:03:39.709Z,7.41
2018-09-24T01:06:08.602Z,7.38
2018-09-24T01:08:37.599Z,7.37
2018-09-24T01:11:06.818Z,7.35
2018-09-24T01:13:35.732Z,7.32
2018-09-24T01:16:04.710Z,7.29
2018-09-24T01:18:33.592Z,7.25
2018-09-24T01:21:02.460Z,7.31
2018-09-24T01:23:31.389Z,7.34
2018-09-24T01:26:00.327Z,7.29
2018-09-24T01:28:29.274Z,7.30
2018-09-24T01:30:58.264Z,7.32
2018-09-24T01:33:27.178Z,7.34
2018-09-24T01:35:56.021Z,7.33
2018-09-24T01:38:24.962Z,7.39
2018-09-24T01:40:53.861Z,7.48
2018-09-24T01:43:23.604Z,7.54
2018-09-24T01:45:52.409Z,7.48
2018-09-24T01:48:21.448Z,7.41
2018-09-24T01:50:50.392Z,7.34
2018-09-24T01:53:19.342Z,7.39
2018-09-24T01:55:50.792Z,7.39
2018-09-24T01:58:19.774Z,7.34
2018-09-24T02:00:48.591Z,7.33
2018-09-24T02:03:17.645Z,7.35
2018-09-24T02:05:46.465Z,7.42
2018-09-24T02:08:15.297Z,7.37
2018-09-24T02:10:44.219Z,7.30
2018-09-24T02:13:13.472Z,7.25
2018-09-24T02:15:42.350Z,7.34
2018-09-24T02:18:11.258Z,7.26
2018-09-24T02:20:47.034Z,7.21
2018-09-24T02:23:16.429Z,7.24
2018-09-24T02:25:45.450Z,7.23
2018-09-24T02:28:14.297Z,7.30
2018-09-24T02:30:43.091Z,7.30
2018-09-24T02:33:13.596Z,7.26
2018-09-24T02:35:50.137Z,7.23
2018-09-24T02:38:19.822Z,7.19
2018-09-24T02:40:48.782Z,7.11
2018-09-24T02:43:23.247Z,7.10
2018-09-24T02:45:52.966Z,7.11
2018-09-24T02:48:21.782Z,7.14
2018-09-24T02:50:50.546Z,7.04
2018-09-24T02:53:19.773Z,6.93
2018-09-24T02:55:48.557Z,6.91
2018-09-24T02:58:18.889Z,6.85
2018-09-24T03:00:47.819Z,6.86
2018-09-24T03:03:16.727Z,6.90
2018-09-24T03:05:45.739Z,6.87
2018-09-24T03:08:15.124Z,6.89
2018-09-24T03:10:44.089Z,6.90
2018-09-24T03:13:13.169Z,6.88
2018-09-24T03:15:42.500Z,6.95
2018-09-24T03:18:11.543Z,6.98
2018-09-24T03:20:41.780Z,6.92
2018-09-24T03:23:10.724Z,6.96
2018-09-24T03:25:40.217Z,7.02
2018-09-24T03:28:09.100Z,7.03
2018-09-24T03:30:41.600Z,7.09
2018-09-24T03:33:10.644Z,6.97
2018-09-24T03:35:39.493Z,6.86
2018-09-24T03:38:08.327Z,6.76
2018-09-24T03:40:37.245Z,6.74
2018-09-24T03:43:07.140Z,6.75
2018-09-24T03:45:36.026Z,6.79
2018-09-24T03:48:04.966Z,6.81
2018-09-24T03:50:33.907Z,6.74
2018-09-24T03:53:02.742Z,6.73
2018-09-24T03:55:31.676Z,6.65
2018-09-24T03:58:00.537Z,6.62
2018-09-24T04:00:29.550Z,6.59
2018-09-24T04:02:58.502Z,6.51
2018-09-24T04:05:32.419Z,6.46
2018-09-24T04:08:06.263Z,6.52
2018-09-24T04:10:40.236Z,6.63
2018-09-24T04:13:14.305Z,6.69
2018-09-24T04:15:48.466Z,6.61
2018-09-24T04:18:22.555Z,6.63
2018-09-24T04:20:56.488Z,6.65
2018-09-24T04:23:30.455Z,6.71
2018-09-24T04:26:04.471Z,6.72
2018-09-24T04:28:38.424Z,6.71
2018-09-24T04:31:12.527Z,6.69
2018-09-24T04:33:46.605Z,6.64
2018-09-24T04:36:20.536Z,6.63
2018-09-24T04:38:54.485Z,6.64
2018-09-24T04:41:28.598Z,6.59
2018-09-24T04:44:02.371Z,6.70
2018-09-24T04:46:36.270Z,6.81
2018-09-24T04:49:10.317Z,6.84
2018-09-24T04:51:44.496Z,6.81
2018-09-24T04:54:18.469Z,6.78
2018-09-24T04:56:52.586Z,6.75
2018-09-24T04:59:26.465Z,6.74
2018-09-24T05:02:00.427Z,6.73
2018-09-24T05:04:34.365Z,6.67
2018-09-24T05:07:08.462Z,6.62
2018-09-24T05:09:42.505Z,6.66
2018-09-24T05:12:16.684Z,6.71
2018-09-24T05:14:50.613Z,6.75
2018-09-24T05:17:24.764Z,6.75
2018-09-24T05:19:58.792Z,6.74
2018-09-24T05:22:32.738Z,6.70
2018-09-24T05:25:06.866Z,6.70
2018-09-24T05:27:41.080Z,6.74
2018-09-24T05:30:15.172Z,6.73
2018-09-24T05:32:49.223Z,6.83
2018-09-24T05:35:23.231Z,6.82
2018-09-24T05:37:57.870Z,6.74
2018-09-24T05:40:31.806Z,6.73
2018-09-24T05:43:05.887Z,6.83
2018-09-24T05:45:39.921Z,6.87
2018-09-24T05:48:13.850Z,6.92
2018-09-24T05:50:47.898Z,7.06
2018-09-24T05:53:21.860Z,7.10
2018-09-24T05:55:55.953Z,7.10
2018-09-24T05:58:29.933Z,7.12
2018-09-24T06:01:03.919Z,7.12
2018-09-24T06:03:37.827Z,7.10
2018-09-24T06:06:12.238Z,7.15
2018-09-24T06:08:46.216Z,7.14
2018-09-24T06:11:20.253Z,7.22
2018-09-24T06:13:54.445Z,7.37
2018-09-24T06:16:28.291Z,7.47
2018-09-24T06:19:02.330Z,7.57
2018-09-24T06:21:36.117Z,7.63
2018-09-24T06:24:11.183Z,7.74
2018-09-24T06:26:45.157Z,7.86
2018-09-24T06:29:19.167Z,7.97
2018-09-24T06:31:53.095Z,8.10
2018-09-24T06:34:27.181Z,8.16
2018-09-24T06:37:01.230Z,8.20
2018-09-24T06:39:35.276Z,8.26
2018-09-24T06:42:17.039Z,8.34
2018-09-24T06:44:58.493Z,8.46
2018-09-24T06:47:34.538Z,8.54
2018-09-24T06:50:08.449Z,8.64
2018-09-24T06:52:43.663Z,8.71
2018-09-24T06:55:17.905Z,8.79
2018-09-24T06:57:51.885Z,8.85
2018-09-24T07:00:25.968Z,8.95
2018-09-24T07:02:59.971Z,9.06
2018-09-24T07:05:34.069Z,9.07
2018-09-24T07:08:07.860Z,9.16
2018-09-24T07:10:42.035Z,9.21
2018-09-24T07:13:16.073Z,9.33
2018-09-24T07:15:49.976Z,9.36
2018-09-24T07:18:24.113Z,9.46
2018-09-24T07:20:58.128Z,9.48
2018-09-24T07:23:34.084Z,9.53
2018-09-24T07:26:08.128Z,9.63
2018-09-24T07:28:42.253Z,9.65
2018-09-24T07:31:16.232Z,9.76
2018-09-24T07:33:50.875Z,9.82
2018-09-24T07:36:24.821Z,9.84
2018-09-24T07:38:58.830Z,9.99
2018-09-24T07:41:32.727Z,10.00
2018-09-24T07:44:07.862Z,10.03
2018-09-24T07:46:41.764Z,10.22
2018-09-24T07:49:15.868Z,10.24
2018-09-24T07:51:50.014Z,10.32
2018-09-24T07:54:25.210Z,10.40
2018-09-24T07:56:59.079Z,10.46
2018-09-24T07:59:33.179Z,10.49
2018-09-24T08:02:07.225Z,10.60
2018-09-24T08:04:42.204Z,10.64
2018-09-24T08:07:16.137Z,10.76
2018-09-24T08:09:50.227Z,10.90
2018-09-24T08:12:24.189Z,10.96
2018-09-24T08:14:59.165Z,11.09
2018-09-24T08:17:33.073Z,11.21
2018-09-24T08:20:07.031Z,11.26
2018-09-24T08:22:41.973Z,11.33
2018-09-24T08:25:16.053Z,11.42
2018-09-24T08:27:50.108Z,11.63
2018-09-24T08:30:24.357Z,11.70
2018-09-24T08:32:59.421Z,11.76
2018-09-24T08:35:33.515Z,11.76
2018-09-24T08:38:08.260Z,11.73
2018-09-24T08:40:42.213Z,11.75
2018-09-24T08:43:17.244Z,11.84
2018-09-24T08:45:51.276Z,11.87
2018-09-24T08:48:25.265Z,11.86
2018-09-24T08:50:59.403Z,11.96
2018-09-24T08:53:33.712Z,11.92
2018-09-24T08:56:07.744Z,12.01
2018-09-24T08:58:41.697Z,12.12
2018-09-24T09:01:15.937Z,12.08
2018-09-24T09:03:55.505Z,12.17
2018-09-24T09:06:29.585Z,12.17
2018-09-24T09:09:03.732Z,12.27
2018-09-24T09:11:37.816Z,12.30
2018-09-24T09:14:12.074Z,12.40
2018-09-24T09:16:46.052Z,12.35
2018-09-24T09:19:20.556Z,12.42
2018-09-24T09:21:54.518Z,12.46
2018-09-24T09:24:28.558Z,12.45
2018-09-24T09:27:02.598Z,12.58
2018-09-24T09:29:36.774Z,12.70
2018-09-24T09:32:10.685Z,12.84
2018-09-24T09:34:48.240Z,12.96
2018-09-24T09:37:22.284Z,13.20
2018-09-24T09:39:56.429Z,13.31
2018-09-24T09:42:30.507Z,13.50
2018-09-24T09:45:04.630Z,13.57
2018-09-24T09:47:38.693Z,13.76
2018-09-24T09:50:12.646Z,14.13
2018-09-24T09:52:46.650Z,14.38
2018-09-24T09:55:22.736Z,14.22
2018-09-24T09:57:56.944Z,14.24
2018-09-24T10:00:31.276Z,14.30
2018-09-24T10:03:05.287Z,14.18
2018-09-24T10:05:41.577Z,14.00
2018-09-24T10:08:15.665Z,13.98
2018-09-24T10:10:49.780Z,14.04
2018-09-24T10:13:23.897Z,14.05
2018-09-24T10:15:57.998Z,13.97
2018-09-24T10:18:31.965Z,14.00
2018-09-24T10:21:06.025Z,14.03
2018-09-24T10:23:39.995Z,14.17
2018-09-24T10:26:14.144Z,14.47
2018-09-24T10:28:48.148Z,14.67
2018-09-24T10:31:22.265Z,14.95
2018-09-24T10:33:56.244Z,15.11
2018-09-24T10:36:30.152Z,15.05
2018-09-24T10:39:04.097Z,14.97
2018-09-24T10:41:38.284Z,14.98
2018-09-24T10:44:12.512Z,14.94
2018-09-24T10:46:46.697Z,15.01
2018-09-24T10:49:20.804Z,15.20
2018-09-24T10:51:54.837Z,15.32
2018-09-24T10:54:29.891Z,15.28
2018-09-24T10:57:03.940Z,15.10
2018-09-24T10:59:37.993Z,14.70
2018-09-24T11:02:12.153Z,14.63
2018-09-24T11:04:46.177Z,14.51
2018-09-24T11:07:20.265Z,14.47
2018-09-24T11:09:54.189Z,14.58
2018-09-24T11:12:28.027Z,14.66
2018-09-24T11:15:02.169Z,14.68
2018-09-24T11:17:36.442Z,15.08
2018-09-24T11:20:10.371Z,15.46
2018-09-24T11:22:44.404Z,15.50
2018-09-24T11:25:19.400Z,15.57
2018-09-24T11:27:53.538Z,15.76
2018-09-24T11:30:27.645Z,15.71
2018-09-24T11:33:01.603Z,15.57
2018-09-24T11:35:35.637Z,15.31
2018-09-24T11:38:09.723Z,15.43
2018-09-24T11:40:43.735Z,15.69
2018-09-24T11:43:17.743Z,16.08
2018-09-24T11:45:59.212Z,16.07
2018-09-24T11:48:33.073Z,16.28
2018-09-24T11:51:07.081Z,16.30
2018-09-24T11:53:41.016Z,16.26
2018-09-24T11:56:15.906Z,16.11
2018-09-24T11:58:49.852Z,15.87
2018-09-24T12:01:23.953Z,16.14
2018-09-24T12:03:57.961Z,16.48
2018-09-24T12:06:32.011Z,16.80
2018-09-24T12:09:05.948Z,16.63
2018-09-24T12:11:39.989Z,16.32
2018-09-24T12:14:13.958Z,15.72
2018-09-24T12:16:48.056Z,13.96
2018-09-24T12:19:22.088Z,12.67
2018-09-24T12:21:56.022Z,11.91
2018-09-24T12:24:29.929Z,11.51
2018-09-24T12:27:03.943Z,11.12
2018-09-24T12:29:37.961Z,11.01
2018-09-24T12:32:11.843Z,10.85
2018-09-24T12:34:46.922Z,10.99
2018-09-24T12:37:20.938Z,11.29
2018-09-24T12:39:55.087Z,11.84
2018-09-24T12:42:29.165Z,12.48
2018-09-24T12:45:03.341Z,12.90
2018-09-24T12:47:37.425Z,13.04
2018-09-24T12:50:11.297Z,12.93
2018-09-24T12:52:45.203Z,12.75
2018-09-24T12:55:19.143Z,12.64
2018-09-24T12:57:53.047Z,12.44
2018-09-24T13:00:26.956Z,12.37
2018-09-24T13:03:00.853Z,12.39
2018-09-24T13:05:35.929Z,12.34
2018-09-24T13:08:09.941Z,12.34
2018-09-24T13:10:43.944Z,12.42
2018-09-24T13:13:17.921Z,12.42
2018-09-24T13:15:51.936Z,12.43
2018-09-24T13:18:25.756Z,12.69
2018-09-24T13:20:59.669Z,13.40
2018-09-24T13:23:33.685Z,14.54
2018-09-24T13:26:09.921Z,17.40
2018-09-24T13:28:43.791Z,20.44
2018-09-24T13:31:17.885Z,22.83
2018-09-24T13:33:51.809Z,23.83
2018-09-24T13:36:26.944Z,24.19
2018-09-24T13:39:00.977Z,23.24
2018-09-24T13:41:35.100Z,22.68
2018-09-24T13:44:09.177Z,21.82
2018-09-24T13:46:45.341Z,20.92
2018-09-24T13:49:19.264Z,21.63
2018-09-24T13:51:53.340Z,22.09
2018-09-24T13:54:27.380Z,22.45
2018-09-24T13:57:01.481Z,23.33
2018-09-24T13:59:35.412Z,23.90
2018-09-24T14:02:09.391Z,22.85
2018-09-24T14:04:43.418Z,20.94
2018-09-24T14:07:17.677Z,18.00
2018-09-24T14:09:52.441Z,16.41
2018-09-24T14:12:26.431Z,15.08
2018-09-24T14:15:00.558Z,13.39
2018-09-24T14:17:34.541Z,12.20
2018-09-24T14:20:08.422Z,11.63
2018-09-24T14:22:42.377Z,11.40
2018-09-24T14:25:21.885Z,11.17
2018-09-24T14:27:55.948Z,11.22
2018-09-24T14:30:30.180Z,11.37
2018-09-24T14:33:04.227Z,13.67
2018-09-24T14:35:39.280Z,16.09
2018-09-24T14:38:13.105Z,17.13
2018-09-24T14:40:47.004Z,17.96
2018-09-24T14:43:21.013Z,18.62
2018-09-24T14:45:57.165Z,18.94
2018-09-24T14:48:31.025Z,19.57
2018-09-24T14:51:04.924Z,20.19
2018-09-24T14:53:38.924Z,20.19
2018-09-24T14:56:12.876Z,20.11
2018-09-24T14:58:46.950Z,20.24
2018-09-24T15:01:21.061Z,20.71
2018-09-24T15:03:54.992Z,18.90
2018-09-24T15:06:29.173Z,16.70
2018-09-24T15:09:03.041Z,15.05
2018-09-24T15:11:37.202Z,14.71
2018-09-24T15:14:11.154Z,14.24
2018-09-24T15:16:45.061Z,13.84
2018-09-24T15:19:19.832Z,15.60
2018-09-24T15:21:53.900Z,17.32
2018-09-24T15:24:27.924Z,16.75
2018-09-24T15:27:02.237Z,16.71
2018-09-24T15:29:36.282Z,18.31
2018-09-24T15:32:10.444Z,18.49
2018-09-24T15:34:44.367Z,16.87
2018-09-24T15:37:18.703Z,15.22
2018-09-24T15:39:52.965Z,14.94
2018-09-24T15:42:26.881Z,14.76
2018-09-24T15:45:00.943Z,15.55
2018-09-24T15:47:35.249Z,16.97
2018-09-24T15:50:09.376Z,17.97
2018-09-24T15:52:43.616Z,18.09
2018-09-24T15:55:17.695Z,18.15
2018-09-24T15:57:53.890Z,17.69
2018-09-24T16:00:27.909Z,17.88
2018-09-24T16:03:02.002Z,17.72
2018-09-24T16:05:35.959Z,16.93
2018-09-24T16:08:10.020Z,16.85
2018-09-24T16:10:44.087Z,16.98
2018-09-24T16:13:25.009Z,16.66
2018-09-24T16:15:58.985Z,16.70
2018-09-24T16:18:33.106Z,16.49
2018-09-24T16:21:07.155Z,15.73
2018-09-24T16:23:41.105Z,15.61
2018-09-24T16:26:16.058Z,15.36
2018-09-24T16:28:49.948Z,15.35
2018-09-24T16:31:23.930Z,15.16
2018-09-24T16:33:58.085Z,14.99
2018-09-24T16:36:33.316Z,14.80
2018-09-24T16:39:07.373Z,14.45
2018-09-24T16:41:41.512Z,14.02
2018-09-24T16:44:15.469Z,13.81
2018-09-24T16:46:51.556Z,13.56
2018-09-24T16:49:25.804Z,13.12
2018-09-24T16:51:59.852Z,12.87
2018-09-24T16:54:33.757Z,12.68
2018-09-24T16:57:08.954Z,12.56
2018-09-24T16:59:42.893Z,12.28
2018-09-24T17:02:16.909Z,11.81
2018-09-24T17:04:51.080Z,11.57
2018-09-24T17:07:26.273Z,11.51
2018-09-24T17:10:00.495Z,11.27
2018-09-24T17:12:34.629Z,11.06
2018-09-24T17:15:08.732Z,10.82
2018-09-24T17:17:42.800Z,10.66
2018-09-24T17:20:16.868Z,10.51
2018-09-24T17:22:50.807Z,10.38
2018-09-24T17:25:24.832Z,10.28
2018-09-24T17:27:58.967Z,10.29
2018-09-24T17:30:32.785Z,10.33
2018-09-24T17:33:06.740Z,10.33
2018-09-24T17:35:40.782Z,10.30
2018-09-24T17:38:14.618Z,10.30
2018-09-24T17:40:48.781Z,10.31
2018-09-24T17:43:22.961Z,10.44
2018-09-24T17:45:57.043Z,10.48
2018-09-24T17:48:30.961Z,10.52
2018-09-24T17:51:04.797Z,10.53
2018-09-24T17:53:38.728Z,10.47
2018-09-24T17:56:12.736Z,10.27
2018-09-24T17:58:46.733Z,10.06
2018-09-24T18:01:20.766Z,9.96
2018-09-24T18:03:55.133Z,9.90
2018-09-24T18:06:29.156Z,9.87
2018-09-24T18:09:03.514Z,9.71
2018-09-24T18:11:37.869Z,9.52
2018-09-24T18:14:11.896Z,9.38
2018-09-24T18:16:46.921Z,9.32
2018-09-24T18:19:20.925Z,9.26
2018-09-24T18:21:54.838Z,9.25
2018-09-24T18:24:28.900Z,9.15
2018-09-24T18:27:03.076Z,9.02
2018-09-24T18:29:36.989Z,8.94
2018-09-24T18:32:11.017Z,8.82
2018-09-24T18:34:45.169Z,8.79
2018-09-24T18:37:19.396Z,8.76
2018-09-24T18:39:53.385Z,8.78
2018-09-24T18:42:27.622Z,8.85
2018-09-24T18:45:01.495Z,8.94
2018-09-24T18:47:35.646Z,9.04
2018-09-24T18:50:09.734Z,9.09
2018-09-24T18:52:43.922Z,9.07
2018-09-24T18:55:18.171Z,9.09
2018-09-24T18:57:52.116Z,9.07
2018-09-24T19:00:26.272Z,9.02
2018-09-24T19:03:00.247Z,8.98
2018-09-24T19:05:34.176Z,8.88
2018-09-24T19:08:08.272Z,8.85
2018-09-24T19:10:42.242Z,8.79
2018-09-24T19:13:16.505Z,8.70
2018-09-24T19:15:50.698Z,8.64
2018-09-24T19:18:24.531Z,8.58
2018-09-24T19:20:58.483Z,8.67
2018-09-24T19:23:32.653Z,8.70
2018-09-24T19:26:06.761Z,8.74
2018-09-24T19:28:40.856Z,8.83
2018-09-24T19:31:14.962Z,9.00
2018-09-24T19:33:48.829Z,9.11
2018-09-24T19:36:23.007Z,9.19
2018-09-24T19:38:57.217Z,9.24
2018-09-24T19:41:31.307Z,9.23
2018-09-24T19:44:05.301Z,9.22
2018-09-24T19:46:39.213Z,9.32
2018-09-24T19:49:13.313Z,9.34
2018-09-24T19:51:47.180Z,9.39
2018-09-24T19:54:21.195Z,9.45
2018-09-24T19:56:55.077Z,9.52
2018-09-24T19:59:29.227Z,9.63
2018-09-24T20:02:03.060Z,9.68
2018-09-24T20:04:37.159Z,9.67
2018-09-24T20:07:11.110Z,9.62
2018-09-24T20:09:45.285Z,9.49
2018-09-24T20:12:19.287Z,9.33
2018-09-24T20:14:53.405Z,9.16
2018-09-24T20:17:27.309Z,9.01
2018-09-24T20:20:01.559Z,8.87
2018-09-24T20:22:35.557Z,8.77
2018-09-24T20:25:09.605Z,8.71
2018-09-24T20:27:43.588Z,8.48
2018-09-24T20:30:17.563Z,8.23
2018-09-24T20:32:51.404Z,8.06
2018-09-24T20:35:25.425Z,8.08
2018-09-24T20:37:59.400Z,8.03
2018-09-24T20:40:33.540Z,7.92
2018-09-24T20:43:07.566Z,7.83
2018-09-24T20:45:41.504Z,7.80
2018-09-24T20:48:15.725Z,7.81
2018-09-24T20:50:49.829Z,7.80
2018-09-24T20:53:23.737Z,7.78
2018-09-24T20:55:57.720Z,7.71
2018-09-24T20:58:31.757Z,7.78
2018-09-24T21:01:05.692Z,7.81
2018-09-24T21:03:39.705Z,7.77
2018-09-24T21:06:13.712Z,7.73
2018-09-24T21:08:47.878Z,7.76
2018-09-24T21:11:22.055Z,7.88
2018-09-24T21:13:56.102Z,7.99
2018-09-24T21:16:30.126Z,8.03
2018-09-24T21:19:04.353Z,8.14
2018-09-24T21:21:38.279Z,8.10
2018-09-24T21:24:12.813Z,8.03
2018-09-24T21:26:46.859Z,7.90
2018-09-24T21:29:20.776Z,7.84
2018-09-24T21:31:54.936Z,7.69
2018-09-24T21:34:29.018Z,7.62
2018-09-24T21:37:03.173Z,7.57
2018-09-24T21:39:37.118Z,7.42
2018-09-24T21:42:11.176Z,7.32
2018-09-24T21:44:45.157Z,7.33
2018-09-24T21:47:19.247Z,7.31
2018-09-24T21:49:53.200Z,7.28
2018-09-24T21:52:27.336Z,7.27
2018-09-24T21:55:01.509Z,7.31
2018-09-24T21:57:35.656Z,7.28
2018-09-24T22:00:10.200Z,7.18
2018-09-24T22:02:44.211Z,7.06
2018-09-24T22:05:18.348Z,7.00
2018-09-24T22:07:52.300Z,6.99
2018-09-24T22:10:26.248Z,7.00
2018-09-24T22:13:00.228Z,7.08
2018-09-24T22:15:34.134Z,7.17
2018-09-24T22:18:08.042Z,7.16
2018-09-24T22:20:42.305Z,7.16
2018-09-24T22:23:16.273Z,7.11
2018-09-24T22:25:50.233Z,7.15
2018-09-24T22:28:24.196Z,7.23
2018-09-24T22:30:58.260Z,7.27
2018-09-24T22:33:32.439Z,7.21
2018-09-24T22:36:06.500Z,7.19
2018-09-24T22:38:41.476Z,7.19
2018-09-24T22:41:15.387Z,7.09
2018-09-24T22:43:49.497Z,6.91
2018-09-24T22:46:23.472Z,6.88
2018-09-24T22:48:57.400Z,7.06
2018-09-24T22:51:31.285Z,7.14
2018-09-24T22:54:05.377Z,7.07
2018-09-24T22:56:39.471Z,7.02
2018-09-24T22:59:13.591Z,7.04
2018-09-24T23:01:47.713Z,7.12
2018-09-24T23:04:21.796Z,7.20
2018-09-24T23:06:55.805Z,7.27
2018-09-24T23:09:30.024Z,7.29
2018-09-24T23:12:04.028Z,7.19
2018-09-24T23:14:38.160Z,7.04
2018-09-24T23:17:12.156Z,7.03
2018-09-24T23:19:46.062Z,7.03
2018-09-24T23:22:20.178Z,7.06
2018-09-24T23:24:54.386Z,7.02
2018-09-24T23:27:28.442Z,7.01
2018-09-24T23:30:02.937Z,6.97
2018-09-24T23:32:36.999Z,6.89
2018-09-24T23:35:11.146Z,6.87
2018-09-24T23:37:47.140Z,6.83
2018-09-24T23:40:21.086Z,6.88
2018-09-24T23:42:54.923Z,6.98
2018-09-24T23:45:28.892Z,6.98
2018-09-24T23:48:02.890Z,7.01
2018-09-24T23:50:36.793Z,7.06
2018-09-24T23:53:10.955Z,7.02
2018-09-24T23:55:44.828Z,7.00
2018-09-24T23:58:18.713Z,6.94
